LOG1LZ EGTE-EGCC
Flight info
| Callsign | LOG1LZ |
|---|---|
| Flight time | N/A |
| Altitude | 19000 |
| Route | EXMOR DCT CARWI/N0331F200 N864 MONTY/N0324F190 |
| Aircraft | E145/M-SDFGIRW/S |
Departure
| Time | 2026-04-10 12:07 |
|---|---|
| Airport | Exeter International Airport (EGTE) |
Arrival
| Time | N/A |
|---|---|
| Airport | Manchester Airport (EGCC) |
| Time | Latitude | Longitude | Altitude | Speed | Heading |
|---|---|---|---|---|---|
| 2026-04-10 11:39 | 50.73029 | -3.42050 | 98 ft | 0 kts | 130° |
| 2026-04-10 11:52 | 50.73030 | -3.42050 | 98 ft | 0 kts | 130° |
| 2026-04-10 11:58 | 50.73029 | -3.42050 | 98 ft | 0 kts | 130° |
| 2026-04-10 11:58 | 50.73031 | -3.42052 | 98 ft | 1 kts | 130° |
| 2026-04-10 11:58 | 50.73040 | -3.42070 | 97 ft | 2 kts | 130° |
| 2026-04-10 11:58 | 50.73050 | -3.42088 | 95 ft | 2 kts | 130° |
| 2026-04-10 11:59 | 50.73058 | -3.42103 | 94 ft | 0 kts | 130° |
| 2026-04-10 11:59 | 50.73065 | -3.42119 | 94 ft | 2 kts | 110° |
| 2026-04-10 11:59 | 50.73067 | -3.42142 | 94 ft | 2 kts | 83° |
| 2026-04-10 11:59 | 50.73064 | -3.42160 | 94 ft | 1 kts | 62° |
| 2026-04-10 12:00 | 50.73063 | -3.42163 | 94 ft | 0 kts | 62° |
| 2026-04-10 12:01 | 50.73067 | -3.42152 | 94 ft | 2 kts | 62° |
| 2026-04-10 12:01 | 50.73086 | -3.42096 | 93 ft | 9 kts | 62° |
| 2026-04-10 12:01 | 50.73116 | -3.41989 | 92 ft | 11 kts | 66° |
| 2026-04-10 12:02 | 50.73124 | -3.41962 | 92 ft | 3 kts | 65° |
| 2026-04-10 12:02 | 50.73124 | -3.41960 | 92 ft | 4 kts | 64° |
| 2026-04-10 12:02 | 50.73143 | -3.41908 | 92 ft | 6 kts | 61° |
| 2026-04-10 12:02 | 50.73170 | -3.41832 | 91 ft | 9 kts | 58° |
| 2026-04-10 12:03 | 50.73210 | -3.41734 | 90 ft | 11 kts | 58° |
| 2026-04-10 12:03 | 50.73213 | -3.41602 | 91 ft | 13 kts | 102° |
| 2026-04-10 12:03 | 50.73208 | -3.41488 | 91 ft | 13 kts | 91° |
| 2026-04-10 12:03 | 50.73204 | -3.41329 | 92 ft | 14 kts | 93° |
| 2026-04-10 12:04 | 50.73221 | -3.41168 | 94 ft | 14 kts | 74° |
| 2026-04-10 12:04 | 50.73287 | -3.41051 | 94 ft | 16 kts | 15° |
| 2026-04-10 12:04 | 50.73408 | -3.41055 | 92 ft | 18 kts | 353° |
| 2026-04-10 12:04 | 50.73493 | -3.40982 | 92 ft | 15 kts | 76° |
| 2026-04-10 12:05 | 50.73518 | -3.40810 | 94 ft | 16 kts | 77° |
| 2026-04-10 12:05 | 50.73546 | -3.40636 | 96 ft | 16 kts | 76° |
| 2026-04-10 12:05 | 50.73574 | -3.40456 | 98 ft | 17 kts | 76° |
| 2026-04-10 12:05 | 50.73603 | -3.40268 | 99 ft | 18 kts | 77° |
| 2026-04-10 12:06 | 50.73631 | -3.40088 | 100 ft | 12 kts | 85° |
| 2026-04-10 12:06 | 50.73620 | -3.39996 | 101 ft | 7 kts | 95° |
| 2026-04-10 12:06 | 50.73642 | -3.40027 | 101 ft | 8 kts | 264° |
| 2026-04-10 12:06 | 50.73625 | -3.40134 | 100 ft | 17 kts | 257° |
| 2026-04-10 12:07 | 50.73533 | -3.40720 | 95 ft | 91 kts | 256° |
| 2026-04-10 12:07 | 50.73066 | -3.43643 | 511 ft | 159 kts | 251° |
| 2026-04-10 12:07 | 50.72780 | -3.45316 | 1213 ft | 159 kts | 250° |
| 2026-04-10 12:08 | 50.72481 | -3.47098 | 1648 ft | 180 kts | 250° |
| 2026-04-10 12:08 | 50.72158 | -3.49049 | 2034 ft | 198 kts | 255° |
| 2026-04-10 12:08 | 50.72291 | -3.51321 | 2250 ft | 228 kts | 286° |
| 2026-04-10 12:08 | 50.73266 | -3.53570 | 2463 ft | 261 kts | 319° |
| 2026-04-10 12:09 | 50.74900 | -3.54814 | 3181 ft | 266 kts | 349° |
| 2026-04-10 12:09 | 50.76708 | -3.54644 | 3955 ft | 266 kts | 19° |
| 2026-04-10 12:09 | 50.78285 | -3.53278 | 4835 ft | 260 kts | 33° |
| 2026-04-10 12:09 | 50.79814 | -3.51711 | 5459 ft | 267 kts | 32° |
| 2026-04-10 12:10 | 50.81393 | -3.50074 | 6053 ft | 275 kts | 31° |
| 2026-04-10 12:10 | 50.82993 | -3.48416 | 6809 ft | 276 kts | 31° |
| 2026-04-10 12:10 | 50.84598 | -3.46752 | 7432 ft | 282 kts | 30° |
| 2026-04-10 12:10 | 50.86260 | -3.45030 | 7985 ft | 290 kts | 30° |
| 2026-04-10 12:11 | 50.87993 | -3.43235 | 8461 ft | 300 kts | 30° |
| 2026-04-10 12:11 | 50.89749 | -3.41411 | 9025 ft | 306 kts | 29° |
| 2026-04-10 12:11 | 50.91513 | -3.39582 | 9637 ft | 310 kts | 28° |
| 2026-04-10 12:11 | 50.93485 | -3.38293 | 10209 ft | 301 kts | 2° |
| 2026-04-10 12:12 | 50.95532 | -3.38037 | 10839 ft | 299 kts | 357° |
| 2026-04-10 12:12 | 50.97608 | -3.37831 | 11481 ft | 300 kts | 356° |
| 2026-04-10 12:12 | 50.99731 | -3.37637 | 11943 ft | 308 kts | 356° |
| 2026-04-10 12:12 | 51.01862 | -3.37439 | 12573 ft | 308 kts | 355° |
| 2026-04-10 12:13 | 51.03994 | -3.37247 | 13083 ft | 312 kts | 356° |
| 2026-04-10 12:13 | 51.06160 | -3.37048 | 13656 ft | 314 kts | 355° |
| 2026-04-10 12:13 | 51.08327 | -3.36850 | 14224 ft | 316 kts | 355° |
| 2026-04-10 12:13 | 51.10521 | -3.36648 | 14776 ft | 318 kts | 355° |
| 2026-04-10 12:14 | 51.12729 | -3.36447 | 15283 ft | 321 kts | 355° |
| 2026-04-10 12:14 | 51.15001 | -3.36239 | 15748 ft | 325 kts | 355° |
| 2026-04-10 12:14 | 51.17269 | -3.36030 | 16227 ft | 328 kts | 355° |
| 2026-04-10 12:14 | 51.19553 | -3.35533 | 16740 ft | 335 kts | 2° |
| 2026-04-10 12:15 | 51.21829 | -3.34919 | 17262 ft | 335 kts | 1° |
| 2026-04-10 12:15 | 51.24133 | -3.34303 | 17747 ft | 337 kts | 1° |
| 2026-04-10 12:15 | 51.26368 | -3.33709 | 18104 ft | 341 kts | 2° |
| 2026-04-10 12:15 | 51.28739 | -3.33074 | 18535 ft | 344 kts | 1° |
| 2026-04-10 12:16 | 51.31060 | -3.32452 | 19018 ft | 345 kts | 1° |
| 2026-04-10 12:16 | 51.33461 | -3.31812 | 19104 ft | 350 kts | 1° |
| 2026-04-10 12:16 | 51.35851 | -3.31169 | 19114 ft | 352 kts | 1° |
| 2026-04-10 12:16 | 51.38281 | -3.30515 | 19113 ft | 350 kts | 0° |
| 2026-04-10 12:17 | 51.40665 | -3.29874 | 19109 ft | 348 kts | 1° |
| 2026-04-10 12:17 | 51.43044 | -3.29068 | 19109 ft | 350 kts | 6° |
| 2026-04-10 12:17 | 51.45388 | -3.28578 | 19130 ft | 335 kts | 354° |
| 2026-04-10 12:17 | 51.47725 | -3.28265 | 19108 ft | 337 kts | 357° |
| 2026-04-10 12:18 | 51.50060 | -3.27847 | 19108 ft | 336 kts | 357° |
| 2026-04-10 12:18 | 51.52365 | -3.27401 | 19107 ft | 335 kts | 358° |
| 2026-04-10 12:18 | 51.54693 | -3.26934 | 19094 ft | 335 kts | 358° |
| 2026-04-10 12:18 | 51.56987 | -3.26468 | 19095 ft | 333 kts | 358° |
| 2026-04-10 12:19 | 51.59286 | -3.26000 | 19080 ft | 334 kts | 358° |
| 2026-04-10 12:19 | 51.61607 | -3.25526 | 19107 ft | 334 kts | 358° |
| 2026-04-10 12:19 | 51.63898 | -3.25057 | 19086 ft | 336 kts | 358° |
| 2026-04-10 12:19 | 51.65447 | -3.24739 | 19094 ft | 336 kts | 358° |
| 2026-04-10 12:20 | 51.68546 | -3.24102 | 19086 ft | 338 kts | 358° |
| 2026-04-10 12:20 | 51.70119 | -3.23778 | 19081 ft | 339 kts | 358° |
| 2026-04-10 12:20 | 51.73257 | -3.23132 | 19075 ft | 340 kts | 358° |
| 2026-04-10 12:20 | 51.75586 | -3.22652 | 19068 ft | 341 kts | 358° |
| 2026-04-10 12:21 | 51.77953 | -3.22164 | 19060 ft | 342 kts | 358° |
| 2026-04-10 12:21 | 51.80300 | -3.21679 | 19064 ft | 342 kts | 358° |
| 2026-04-10 12:21 | 51.82639 | -3.21195 | 19065 ft | 343 kts | 358° |
| 2026-04-10 12:21 | 51.85038 | -3.20698 | 19069 ft | 343 kts | 358° |
| 2026-04-10 12:22 | 51.87403 | -3.20208 | 19066 ft | 343 kts | 358° |
| 2026-04-10 12:22 | 51.89761 | -3.19718 | 19056 ft | 343 kts | 357° |
| 2026-04-10 12:22 | 51.92092 | -3.19424 | 19063 ft | 337 kts | 352° |
| 2026-04-10 12:22 | 51.94466 | -3.19260 | 19081 ft | 337 kts | 353° |
| 2026-04-10 12:23 | 51.96789 | -3.19087 | 19068 ft | 338 kts | 353° |
| 2026-04-10 12:23 | 51.99135 | -3.18910 | 19068 ft | 338 kts | 352° |
| 2026-04-10 12:23 | 52.01481 | -3.18732 | 19059 ft | 339 kts | 352° |
| 2026-04-10 12:23 | 52.03836 | -3.18553 | 19066 ft | 339 kts | 353° |
| 2026-04-10 12:24 | 52.06200 | -3.18372 | 19059 ft | 339 kts | 353° |
| 2026-04-10 12:24 | 52.08527 | -3.18193 | 19058 ft | 340 kts | 352° |
| 2026-04-10 12:24 | 52.10921 | -3.18010 | 19058 ft | 340 kts | 353° |
| 2026-04-10 12:24 | 52.13272 | -3.17829 | 19063 ft | 340 kts | 353° |
| 2026-04-10 12:25 | 52.15608 | -3.17650 | 19055 ft | 340 kts | 353° |
| 2026-04-10 12:25 | 52.17966 | -3.17469 | 19054 ft | 340 kts | 353° |
| 2026-04-10 12:25 | 52.20321 | -3.17287 | 19050 ft | 340 kts | 353° |
| 2026-04-10 12:25 | 52.22708 | -3.17104 | 19055 ft | 340 kts | 352° |
| 2026-04-10 12:26 | 52.25056 | -3.16923 | 19047 ft | 340 kts | 353° |
| 2026-04-10 12:26 | 52.27403 | -3.16741 | 19056 ft | 340 kts | 354° |
| 2026-04-10 12:26 | 52.29775 | -3.16558 | 19049 ft | 340 kts | 353° |
| 2026-04-10 12:26 | 52.32142 | -3.16375 | 19044 ft | 340 kts | 354° |
| 2026-04-10 12:27 | 52.34488 | -3.16192 | 19040 ft | 340 kts | 353° |
| 2026-04-10 12:27 | 52.36856 | -3.16010 | 19043 ft | 340 kts | 353° |
| 2026-04-10 12:27 | 52.39230 | -3.15824 | 19040 ft | 340 kts | 353° |
| 2026-04-10 12:27 | 52.41594 | -3.15641 | 19041 ft | 340 kts | 353° |
| 2026-04-10 12:28 | 52.43963 | -3.15457 | 19041 ft | 341 kts | 353° |
| 2026-04-10 12:28 | 52.46318 | -3.15274 | 19041 ft | 341 kts | 353° |
| 2026-04-10 12:28 | 52.48696 | -3.15088 | 19039 ft | 341 kts | 353° |